Aeroporto :
LOGIN :

Iscrizione | Disclaimer

   EN    FR    IT 

 










Sommario :    VFR   VFR Marginale   IFR   IFR Intensivo   IFR Molto Intensivo
Visibilità : 
Base nubi : 
>= 8 km
>= 3000ft
5 / 8 km
1000 / 3000 ft
1500m / 5 km
500 / 1000 ft
800 / 1500m
200 / 500 ft
< 800m
< 200 ft
Simboli :   Temporali  Nebbia  Neve Forte  Precipitazioni Forti  Vento > 20 kt
SIGMETs :   Varie  Temporali  Ghiacco  Turbolenza  Onda orograficha  Ceneri Vulcaniche






- Altitudine del aeroporto : 238 ft
- Codice IATA : FAB


EGLF - Farnborough

ULTIMO METAR :
  • 061450Z 24014G26KT 9999 FEW018 11/10 Q1002 RERA REDZ

METARs OBSOLETI :
  • 061420Z 23016KT 9999 FEW024 BKN032 12/09 Q1002
  • 061350Z 23015KT 9999 SCT025 SCT032 12/09 Q1003
  • 061320Z 24014KT 9999 FEW015 BKN042 12/09 Q1003
  • 061250Z 25018KT 9999 FEW015 SCT035 BKN045 13/09 Q1003
  • 061220Z 24018G29KT 9999 VCSH SCT012 BKN022 12/11 Q1004 REDZ

TAF TAF EGLF
Valido dal 06 a 15 ore il 06 a 23 ore UTC


061404Z 0615/0623 23015KT 9999 SCT025
PROB40
TEMPO 0615/0619 24018G28KT
PROB30
TEMPO 0615/0619 6000 SHRA
ATIS : +44 09063 800 400 (*282)



MetMap, La meteo Aeronautica in un colpo d'occhio ! - Copyright ORBIFLY Dicembre 2007 - Disclaimer

ORBIFLY MET'MAP TEAM :

Programmazione e sviluppo : Alexandra Zaïnal
Concezione : Baudouin d'Aumeries
Aiuto per la programmazione : Marc-Olivier Méhu
Supporto tecnico e logistico : Manuel Goepfert
Aiuto per la traduzione : Arnaldo La Scala

Contatto : metmap@orbifly.com




FONTI E CREDITI :

   NOAA